sensor_id;sensor_type;location;lat;lon;timestamp;P1;durP1;ratioP1;P2;durP2;ratioP2
35026;SDS011;60696;51.426;6.934;2022-07-23T00:01:28;31.25;;;17.83;;
35026;SDS011;60696;51.426;6.934;2022-07-23T00:03:54;28.83;;;17.45;;
35026;SDS011;60696;51.426;6.934;2022-07-23T00:06:21;27.40;;;17.15;;
35026;SDS011;60696;51.426;6.934;2022-07-23T00:08:47;31.50;;;17.88;;
35026;SDS011;60696;51.426;6.934;2022-07-23T00:11:13;28.30;;;17.25;;
35026;SDS011;60696;51.426;6.934;2022-07-23T00:13:38;32.53;;;17.30;;
35026;SDS011;60696;51.426;6.934;2022-07-23T00:16:04;33.08;;;18.13;;
35026;SDS011;60696;51.426;6.934;2022-07-23T00:18:30;28.20;;;18.08;;
35026;SDS011;60696;51.426;6.934;2022-07-23T00:20:56;36.70;;;19.60;;
35026;SDS011;60696;51.426;6.934;2022-07-23T00:23:21;35.13;;;19.50;;
35026;SDS011;60696;51.426;6.934;2022-07-23T00:25:47;33.72;;;19.52;;
35026;SDS011;60696;51.426;6.934;2022-07-23T00:28:13;35.13;;;19.33;;
35026;SDS011;60696;51.426;6.934;2022-07-23T00:30:38;32.92;;;19.40;;
35026;SDS011;60696;51.426;6.934;2022-07-23T00:33:05;42.33;;;20.60;;
35026;SDS011;60696;51.426;6.934;2022-07-23T00:35:36;39.75;;;21.35;;
35026;SDS011;60696;51.426;6.934;2022-07-23T00:38:05;38.35;;;21.70;;
35026;SDS011;60696;51.426;6.934;2022-07-23T00:40:32;45.47;;;22.05;;
35026;SDS011;60696;51.426;6.934;2022-07-23T00:42:58;35.20;;;21.38;;
35026;SDS011;60696;51.426;6.934;2022-07-23T00:45:24;39.92;;;23.80;;
35026;SDS011;60696;51.426;6.934;2022-07-23T00:47:50;46.65;;;24.27;;
35026;SDS011;60696;51.426;6.934;2022-07-23T00:50:16;44.90;;;24.70;;
35026;SDS011;60696;51.426;6.934;2022-07-23T00:52:42;44.75;;;24.80;;
35026;SDS011;60696;51.426;6.934;2022-07-23T00:55:09;50.47;;;26.60;;
35026;SDS011;60696;51.426;6.934;2022-07-23T00:57:36;56.55;;;27.02;;
35026;SDS011;60696;51.426;6.934;2022-07-23T01:00:03;45.63;;;25.38;;
35026;SDS011;60696;51.426;6.934;2022-07-23T01:02:31;49.10;;;25.75;;
35026;SDS011;60696;51.426;6.934;2022-07-23T01:04:56;40.90;;;23.67;;
35026;SDS011;60696;51.426;6.934;2022-07-23T01:07:22;41.58;;;24.58;;
35026;SDS011;60696;51.426;6.934;2022-07-23T01:09:48;46.72;;;23.80;;
35026;SDS011;60696;51.426;6.934;2022-07-23T01:12:15;46.70;;;24.05;;
35026;SDS011;60696;51.426;6.934;2022-07-23T01:14:41;43.17;;;23.73;;
35026;SDS011;60696;51.426;6.934;2022-07-23T01:17:07;41.72;;;23.70;;
35026;SDS011;60696;51.426;6.934;2022-07-23T01:19:32;39.22;;;23.58;;
35026;SDS011;60696;51.426;6.934;2022-07-23T01:21:58;33.83;;;21.20;;
35026;SDS011;60696;51.426;6.934;2022-07-23T01:24:28;35.25;;;21.30;;
35026;SDS011;60696;51.426;6.934;2022-07-23T01:26:54;39.70;;;21.15;;
35026;SDS011;60696;51.426;6.934;2022-07-23T01:29:19;31.75;;;20.85;;
35026;SDS011;60696;51.426;6.934;2022-07-23T01:31:46;38.25;;;19.90;;
35026;SDS011;60696;51.426;6.934;2022-07-23T01:34:12;31.67;;;19.70;;
35026;SDS011;60696;51.426;6.934;2022-07-23T01:36:37;29.67;;;20.33;;
35026;SDS011;60696;51.426;6.934;2022-07-23T01:39:04;29.98;;;19.05;;
35026;SDS011;60696;51.426;6.934;2022-07-23T01:41:30;31.05;;;19.63;;
35026;SDS011;60696;51.426;6.934;2022-07-23T01:43:56;25.67;;;18.40;;
35026;SDS011;60696;51.426;6.934;2022-07-23T01:46:22;24.27;;;17.58;;
35026;SDS011;60696;51.426;6.934;2022-07-23T01:48:48;33.92;;;17.42;;
35026;SDS011;60696;51.426;6.934;2022-07-23T01:51:14;29.42;;;16.70;;
35026;SDS011;60696;51.426;6.934;2022-07-23T01:53:39;23.15;;;16.20;;
35026;SDS011;60696;51.426;6.934;2022-07-23T01:56:05;23.50;;;15.35;;
35026;SDS011;60696;51.426;6.934;2022-07-23T01:58:31;28.23;;;16.60;;
35026;SDS011;60696;51.426;6.934;2022-07-23T02:00:57;23.08;;;15.07;;
35026;SDS011;60696;51.426;6.934;2022-07-23T02:03:22;25.25;;;14.75;;
35026;SDS011;60696;51.426;6.934;2022-07-23T02:05:48;22.65;;;14.40;;
35026;SDS011;60696;51.426;6.934;2022-07-23T02:08:14;22.25;;;13.80;;
35026;SDS011;60696;51.426;6.934;2022-07-23T02:10:40;19.30;;;12.73;;
35026;SDS011;60696;51.426;6.934;2022-07-23T02:13:05;17.58;;;12.60;;
35026;SDS011;60696;51.426;6.934;2022-07-23T02:15:31;17.48;;;11.35;;
35026;SDS011;60696;51.426;6.934;2022-07-23T02:17:57;15.95;;;12.43;;
35026;SDS011;60696;51.426;6.934;2022-07-23T02:20:23;18.45;;;11.73;;
35026;SDS011;60696;51.426;6.934;2022-07-23T02:22:49;18.50;;;11.57;;
35026;SDS011;60696;51.426;6.934;2022-07-23T02:25:15;18.40;;;12.07;;
35026;SDS011;60696;51.426;6.934;2022-07-23T02:27:40;18.33;;;11.57;;
35026;SDS011;60696;51.426;6.934;2022-07-23T02:30:06;15.75;;;10.65;;
35026;SDS011;60696;51.426;6.934;2022-07-23T02:32:32;14.75;;;10.77;;
35026;SDS011;60696;51.426;6.934;2022-07-23T02:34:59;20.30;;;10.98;;
35026;SDS011;60696;51.426;6.934;2022-07-23T02:37:24;15.88;;;11.70;;
35026;SDS011;60696;51.426;6.934;2022-07-23T02:39:50;18.27;;;11.88;;
35026;SDS011;60696;51.426;6.934;2022-07-23T02:42:15;20.42;;;12.98;;
35026;SDS011;60696;51.426;6.934;2022-07-23T02:44:41;19.88;;;13.15;;
35026;SDS011;60696;51.426;6.934;2022-07-23T02:47:07;23.20;;;12.57;;
35026;SDS011;60696;51.426;6.934;2022-07-23T02:49:33;15.40;;;11.90;;
35026;SDS011;60696;51.426;6.934;2022-07-23T02:51:58;17.27;;;12.65;;
35026;SDS011;60696;51.426;6.934;2022-07-23T02:54:24;22.13;;;12.95;;
35026;SDS011;60696;51.426;6.934;2022-07-23T02:56:50;21.73;;;13.70;;
35026;SDS011;60696;51.426;6.934;2022-07-23T02:59:16;20.63;;;13.32;;
35026;SDS011;60696;51.426;6.934;2022-07-23T03:01:42;26.55;;;13.82;;
35026;SDS011;60696;51.426;6.934;2022-07-23T03:04:08;25.88;;;14.32;;
35026;SDS011;60696;51.426;6.934;2022-07-23T03:06:33;23.38;;;15.52;;
35026;SDS011;60696;51.426;6.934;2022-07-23T03:08:59;18.58;;;14.70;;
35026;SDS011;60696;51.426;6.934;2022-07-23T03:11:25;24.63;;;16.73;;
35026;SDS011;60696;51.426;6.934;2022-07-23T03:13:50;26.73;;;15.68;;
35026;SDS011;60696;51.426;6.934;2022-07-23T03:16:16;29.00;;;16.98;;
35026;SDS011;60696;51.426;6.934;2022-07-23T03:18:42;22.33;;;16.48;;
35026;SDS011;60696;51.426;6.934;2022-07-23T03:21:07;25.10;;;15.90;;
35026;SDS011;60696;51.426;6.934;2022-07-23T03:23:33;21.90;;;15.80;;
35026;SDS011;60696;51.426;6.934;2022-07-23T03:25:59;22.90;;;15.23;;
35026;SDS011;60696;51.426;6.934;2022-07-23T03:28:24;24.33;;;16.58;;
35026;SDS011;60696;51.426;6.934;2022-07-23T03:30:50;22.70;;;15.85;;
35026;SDS011;60696;51.426;6.934;2022-07-23T03:33:16;24.13;;;16.38;;
35026;SDS011;60696;51.426;6.934;2022-07-23T03:35:43;21.73;;;15.65;;
35026;SDS011;60696;51.426;6.934;2022-07-23T03:38:09;20.77;;;14.85;;
35026;SDS011;60696;51.426;6.934;2022-07-23T03:43:09;20.50;;;14.50;;
35026;SDS011;60696;51.426;6.934;2022-07-23T03:45:35;22.00;;;16.00;;
35026;SDS011;60696;51.426;6.934;2022-07-23T03:48:01;21.05;;;15.48;;
35026;SDS011;60696;51.426;6.934;2022-07-23T03:50:26;21.50;;;15.45;;
35026;SDS011;60696;51.426;6.934;2022-07-23T03:52:52;20.50;;;15.00;;
35026;SDS011;60696;51.426;6.934;2022-07-23T03:55:19;20.48;;;14.68;;
35026;SDS011;60696;51.426;6.934;2022-07-23T03:57:44;20.60;;;14.48;;
35026;SDS011;60696;51.426;6.934;2022-07-23T04:00:10;18.48;;;15.23;;
35026;SDS011;60696;51.426;6.934;2022-07-23T04:02:37;19.83;;;13.95;;
35026;SDS011;60696;51.426;6.934;2022-07-23T04:05:04;22.42;;;14.77;;
35026;SDS011;60696;51.426;6.934;2022-07-23T04:07:31;17.23;;;13.80;;
35026;SDS011;60696;51.426;6.934;2022-07-23T04:09:57;17.50;;;14.55;;
35026;SDS011;60696;51.426;6.934;2022-07-23T04:12:23;22.75;;;14.85;;
35026;SDS011;60696;51.426;6.934;2022-07-23T04:14:49;22.10;;;14.75;;
35026;SDS011;60696;51.426;6.934;2022-07-23T04:17:14;21.55;;;14.88;;
35026;SDS011;60696;51.426;6.934;2022-07-23T04:19:40;20.75;;;14.68;;
35026;SDS011;60696;51.426;6.934;2022-07-23T04:22:08;21.50;;;13.32;;
35026;SDS011;60696;51.426;6.934;2022-07-23T04:24:34;19.77;;;12.75;;
35026;SDS011;60696;51.426;6.934;2022-07-23T04:27:00;18.75;;;13.43;;
35026;SDS011;60696;51.426;6.934;2022-07-23T04:29:25;20.85;;;12.88;;
35026;SDS011;60696;51.426;6.934;2022-07-23T04:31:51;16.52;;;12.70;;
35026;SDS011;60696;51.426;6.934;2022-07-23T04:34:16;14.02;;;11.88;;
35026;SDS011;60696;51.426;6.934;2022-07-23T04:36:42;16.92;;;12.68;;
35026;SDS011;60696;51.426;6.934;2022-07-23T04:39:08;20.67;;;12.65;;
35026;SDS011;60696;51.426;6.934;2022-07-23T04:41:33;15.77;;;12.23;;
35026;SDS011;60696;51.426;6.934;2022-07-23T04:43:59;16.27;;;11.35;;
35026;SDS011;60696;51.426;6.934;2022-07-23T04:46:25;14.45;;;11.77;;
35026;SDS011;60696;51.426;6.934;2022-07-23T04:48:51;13.63;;;10.93;;
35026;SDS011;60696;51.426;6.934;2022-07-23T04:51:17;13.52;;;10.68;;
35026;SDS011;60696;51.426;6.934;2022-07-23T04:53:43;15.20;;;10.18;;
35026;SDS011;60696;51.426;6.934;2022-07-23T04:56:08;15.00;;;9.15;;
35026;SDS011;60696;51.426;6.934;2022-07-23T04:58:34;12.18;;;8.93;;
35026;SDS011;60696;51.426;6.934;2022-07-23T05:01:00;12.10;;;9.18;;
35026;SDS011;60696;51.426;6.934;2022-07-23T05:03:25;14.65;;;8.90;;
35026;SDS011;60696;51.426;6.934;2022-07-23T05:05:51;11.80;;;9.05;;
35026;SDS011;60696;51.426;6.934;2022-07-23T05:08:17;9.15;;;7.75;;
35026;SDS011;60696;51.426;6.934;2022-07-23T05:10:42;9.30;;;7.53;;
35026;SDS011;60696;51.426;6.934;2022-07-23T05:13:08;11.52;;;8.50;;
35026;SDS011;60696;51.426;6.934;2022-07-23T05:15:34;9.93;;;8.23;;
35026;SDS011;60696;51.426;6.934;2022-07-23T05:17:59;12.73;;;8.20;;
35026;SDS011;60696;51.426;6.934;2022-07-23T05:20:25;11.27;;;9.00;;
35026;SDS011;60696;51.426;6.934;2022-07-23T05:22:51;12.85;;;9.02;;
35026;SDS011;60696;51.426;6.934;2022-07-23T05:25:16;10.93;;;8.55;;
35026;SDS011;60696;51.426;6.934;2022-07-23T05:27:42;15.82;;;9.40;;
35026;SDS011;60696;51.426;6.934;2022-07-23T05:30:08;12.65;;;8.20;;
35026;SDS011;60696;51.426;6.934;2022-07-23T05:32:34;11.77;;;8.15;;
35026;SDS011;60696;51.426;6.934;2022-07-23T05:35:01;11.60;;;8.13;;
35026;SDS011;60696;51.426;6.934;2022-07-23T05:37:28;10.88;;;8.07;;
35026;SDS011;60696;51.426;6.934;2022-07-23T05:39:53;13.95;;;8.32;;
35026;SDS011;60696;51.426;6.934;2022-07-23T05:42:19;13.50;;;8.50;;
35026;SDS011;60696;51.426;6.934;2022-07-23T05:44:45;11.80;;;8.45;;
35026;SDS011;60696;51.426;6.934;2022-07-23T05:47:10;9.95;;;8.90;;
35026;SDS011;60696;51.426;6.934;2022-07-23T05:49:37;12.60;;;9.52;;
35026;SDS011;60696;51.426;6.934;2022-07-23T05:52:04;14.52;;;10.20;;
35026;SDS011;60696;51.426;6.934;2022-07-23T05:54:31;16.75;;;9.52;;
35026;SDS011;60696;51.426;6.934;2022-07-23T05:56:58;11.07;;;9.30;;
35026;SDS011;60696;51.426;6.934;2022-07-23T05:59:24;12.00;;;9.50;;
35026;SDS011;60696;51.426;6.934;2022-07-23T06:01:50;11.80;;;8.70;;
35026;SDS011;60696;51.426;6.934;2022-07-23T06:04:15;11.98;;;8.88;;
35026;SDS011;60696;51.426;6.934;2022-07-23T06:06:41;16.15;;;9.68;;
35026;SDS011;60696;51.426;6.934;2022-07-23T06:09:06;11.00;;;8.32;;
35026;SDS011;60696;51.426;6.934;2022-07-23T06:11:32;12.02;;;9.07;;
35026;SDS011;60696;51.426;6.934;2022-07-23T06:13:58;14.57;;;10.20;;
35026;SDS011;60696;51.426;6.934;2022-07-23T06:16:23;16.52;;;10.90;;
35026;SDS011;60696;51.426;6.934;2022-07-23T06:18:49;18.25;;;11.13;;
35026;SDS011;60696;51.426;6.934;2022-07-23T06:21:14;13.13;;;10.85;;
35026;SDS011;60696;51.426;6.934;2022-07-23T06:23:40;16.20;;;10.82;;
35026;SDS011;60696;51.426;6.934;2022-07-23T06:26:06;13.52;;;10.60;;
35026;SDS011;60696;51.426;6.934;2022-07-23T06:28:32;16.90;;;10.32;;
35026;SDS011;60696;51.426;6.934;2022-07-23T06:30:57;13.45;;;10.52;;
35026;SDS011;60696;51.426;6.934;2022-07-23T06:33:23;15.65;;;10.93;;
35026;SDS011;60696;51.426;6.934;2022-07-23T06:35:48;12.88;;;10.90;;
35026;SDS011;60696;51.426;6.934;2022-07-23T06:38:14;14.40;;;9.38;;
35026;SDS011;60696;51.426;6.934;2022-07-23T06:40:40;14.60;;;10.60;;
35026;SDS011;60696;51.426;6.934;2022-07-23T06:43:05;13.80;;;10.23;;
35026;SDS011;60696;51.426;6.934;2022-07-23T06:45:31;14.10;;;10.55;;
35026;SDS011;60696;51.426;6.934;2022-07-23T06:47:56;15.32;;;10.80;;
35026;SDS011;60696;51.426;6.934;2022-07-23T06:50:22;14.23;;;10.60;;
35026;SDS011;60696;51.426;6.934;2022-07-23T06:52:48;12.95;;;10.27;;
35026;SDS011;60696;51.426;6.934;2022-07-23T06:55:14;14.70;;;10.07;;
35026;SDS011;60696;51.426;6.934;2022-07-23T06:57:39;16.23;;;11.15;;
35026;SDS011;60696;51.426;6.934;2022-07-23T07:00:05;16.77;;;12.60;;
35026;SDS011;60696;51.426;6.934;2022-07-23T07:02:31;14.77;;;11.05;;
35026;SDS011;60696;51.426;6.934;2022-07-23T07:04:57;13.50;;;10.70;;
35026;SDS011;60696;51.426;6.934;2022-07-23T07:07:22;18.88;;;10.80;;
35026;SDS011;60696;51.426;6.934;2022-07-23T07:09:48;16.77;;;11.93;;
35026;SDS011;60696;51.426;6.934;2022-07-23T07:12:14;18.88;;;11.43;;
35026;SDS011;60696;51.426;6.934;2022-07-23T07:14:39;17.20;;;10.07;;
35026;SDS011;60696;51.426;6.934;2022-07-23T07:17:05;14.68;;;10.63;;
35026;SDS011;60696;51.426;6.934;2022-07-23T07:19:31;13.23;;;10.38;;
35026;SDS011;60696;51.426;6.934;2022-07-23T07:21:56;13.38;;;9.55;;
35026;SDS011;60696;51.426;6.934;2022-07-23T07:24:22;13.05;;;9.88;;
35026;SDS011;60696;51.426;6.934;2022-07-23T07:26:47;13.55;;;10.80;;
35026;SDS011;60696;51.426;6.934;2022-07-23T07:29:13;13.30;;;9.85;;
35026;SDS011;60696;51.426;6.934;2022-07-23T07:31:39;16.48;;;12.63;;
35026;SDS011;60696;51.426;6.934;2022-07-23T07:34:04;13.18;;;11.40;;
35026;SDS011;60696;51.426;6.934;2022-07-23T07:36:30;13.35;;;9.85;;
35026;SDS011;60696;51.426;6.934;2022-07-23T07:38:55;10.85;;;8.70;;
35026;SDS011;60696;51.426;6.934;2022-07-23T07:41:21;12.02;;;7.88;;
35026;SDS011;60696;51.426;6.934;2022-07-23T07:43:49;10.65;;;7.07;;
35026;SDS011;60696;51.426;6.934;2022-07-23T07:46:15;11.15;;;7.78;;
35026;SDS011;60696;51.426;6.934;2022-07-23T07:48:41;15.48;;;7.70;;
35026;SDS011;60696;51.426;6.934;2022-07-23T07:51:06;12.52;;;6.65;;
35026;SDS011;60696;51.426;6.934;2022-07-23T07:53:32;9.75;;;7.50;;
35026;SDS011;60696;51.426;6.934;2022-07-23T07:55:58;11.13;;;6.50;;
35026;SDS011;60696;51.426;6.934;2022-07-23T07:58:23;5.97;;;5.20;;
35026;SDS011;60696;51.426;6.934;2022-07-23T08:00:49;11.98;;;5.85;;
35026;SDS011;60696;51.426;6.934;2022-07-23T08:03:16;9.38;;;6.80;;
35026;SDS011;60696;51.426;6.934;2022-07-23T08:05:42;8.18;;;4.88;;
35026;SDS011;60696;51.426;6.934;2022-07-23T08:08:07;8.43;;;5.55;;
35026;SDS011;60696;51.426;6.934;2022-07-23T08:10:34;10.50;;;4.88;;
35026;SDS011;60696;51.426;6.934;2022-07-23T08:13:00;10.02;;;4.60;;
35026;SDS011;60696;51.426;6.934;2022-07-23T08:15:27;8.77;;;4.80;;
35026;SDS011;60696;51.426;6.934;2022-07-23T08:17:54;6.20;;;5.15;;
35026;SDS011;60696;51.426;6.934;2022-07-23T08:20:21;8.80;;;5.10;;
35026;SDS011;60696;51.426;6.934;2022-07-23T08:22:58;7.60;;;4.18;;
35026;SDS011;60696;51.426;6.934;2022-07-23T08:25:26;7.35;;;3.92;;
35026;SDS011;60696;51.426;6.934;2022-07-23T08:27:57;8.27;;;4.00;;
35026;SDS011;60696;51.426;6.934;2022-07-23T08:30:24;8.65;;;3.13;;
35026;SDS011;60696;51.426;6.934;2022-07-23T08:35:34;6.63;;;3.30;;
35026;SDS011;60696;51.426;6.934;2022-07-23T08:38:03;6.55;;;2.95;;
35026;SDS011;60696;51.426;6.934;2022-07-23T08:40:31;4.10;;;2.70;;
35026;SDS011;60696;51.426;6.934;2022-07-23T08:43:07;5.05;;;2.72;;
35026;SDS011;60696;51.426;6.934;2022-07-23T08:45:38;5.05;;;2.75;;
35026;SDS011;60696;51.426;6.934;2022-07-23T08:48:11;6.43;;;2.63;;
35026;SDS011;60696;51.426;6.934;2022-07-23T08:50:42;6.75;;;3.25;;
35026;SDS011;60696;51.426;6.934;2022-07-23T08:53:09;9.38;;;2.60;;
35026;SDS011;60696;51.426;6.934;2022-07-23T08:55:35;7.10;;;2.83;;
35026;SDS011;60696;51.426;6.934;2022-07-23T08:58:00;6.60;;;3.00;;
35026;SDS011;60696;51.426;6.934;2022-07-23T09:00:26;5.28;;;2.83;;
35026;SDS011;60696;51.426;6.934;2022-07-23T09:02:53;4.25;;;2.33;;
35026;SDS011;60696;51.426;6.934;2022-07-23T09:05:19;14.20;;;3.13;;
35026;SDS011;60696;51.426;6.934;2022-07-23T09:10:42;6.05;;;2.80;;
35026;SDS011;60696;51.426;6.934;2022-07-23T09:13:21;3.03;;;1.80;;
35026;SDS011;60696;51.426;6.934;2022-07-23T09:15:48;6.82;;;2.50;;
35026;SDS011;60696;51.426;6.934;2022-07-23T09:18:15;9.85;;;2.42;;
35026;SDS011;60696;51.426;6.934;2022-07-23T09:20:41;8.48;;;2.50;;
35026;SDS011;60696;51.426;6.934;2022-07-23T09:23:08;4.13;;;2.03;;
35026;SDS011;60696;51.426;6.934;2022-07-23T09:25:33;6.03;;;3.17;;
35026;SDS011;60696;51.426;6.934;2022-07-23T09:27:59;4.35;;;2.53;;
35026;SDS011;60696;51.426;6.934;2022-07-23T09:30:28;7.32;;;3.10;;
35026;SDS011;60696;51.426;6.934;2022-07-23T09:35:54;7.22;;;3.47;;
35026;SDS011;60696;51.426;6.934;2022-07-23T09:38:22;6.85;;;3.40;;
35026;SDS011;60696;51.426;6.934;2022-07-23T09:41:10;5.53;;;3.50;;
35026;SDS011;60696;51.426;6.934;2022-07-23T09:43:35;4.63;;;2.40;;
35026;SDS011;60696;51.426;6.934;2022-07-23T09:49:13;4.68;;;2.58;;
35026;SDS011;60696;51.426;6.934;2022-07-23T09:56:47;3.28;;;1.90;;
35026;SDS011;60696;51.426;6.934;2022-07-23T09:59:14;4.68;;;2.03;;
35026;SDS011;60696;51.426;6.934;2022-07-23T10:01:43;4.85;;;2.70;;
35026;SDS011;60696;51.426;6.934;2022-07-23T10:04:10;6.80;;;3.22;;
35026;SDS011;60696;51.426;6.934;2022-07-23T10:06:37;4.22;;;3.03;;
35026;SDS011;60696;51.426;6.934;2022-07-23T10:09:05;6.18;;;3.10;;
35026;SDS011;60696;51.426;6.934;2022-07-23T10:11:32;3.95;;;2.40;;
35026;SDS011;60696;51.426;6.934;2022-07-23T10:13:59;6.47;;;2.55;;
35026;SDS011;60696;51.426;6.934;2022-07-23T10:16:28;2.97;;;1.77;;
35026;SDS011;60696;51.426;6.934;2022-07-23T10:18:54;4.82;;;1.73;;
35026;SDS011;60696;51.426;6.934;2022-07-23T10:24:12;4.70;;;2.10;;
35026;SDS011;60696;51.426;6.934;2022-07-23T10:32:17;2.95;;;1.77;;
35026;SDS011;60696;51.426;6.934;2022-07-23T10:35:13;4.32;;;1.90;;
35026;SDS011;60696;51.426;6.934;2022-07-23T10:37:45;4.20;;;1.80;;
35026;SDS011;60696;51.426;6.934;2022-07-23T10:40:17;4.50;;;1.92;;
35026;SDS011;60696;51.426;6.934;2022-07-23T10:42:46;4.30;;;2.53;;
35026;SDS011;60696;51.426;6.934;2022-07-23T10:45:21;3.67;;;2.25;;
35026;SDS011;60696;51.426;6.934;2022-07-23T10:47:49;6.65;;;2.78;;
35026;SDS011;60696;51.426;6.934;2022-07-23T10:50:37;4.38;;;2.30;;
35026;SDS011;60696;51.426;6.934;2022-07-23T10:53:17;5.32;;;2.20;;
35026;SDS011;60696;51.426;6.934;2022-07-23T10:58:10;6.18;;;2.20;;
35026;SDS011;60696;51.426;6.934;2022-07-23T11:00:41;5.32;;;1.73;;
35026;SDS011;60696;51.426;6.934;2022-07-23T11:05:57;8.68;;;2.88;;
35026;SDS011;60696;51.426;6.934;2022-07-23T11:08:23;4.10;;;1.98;;
35026;SDS011;60696;51.426;6.934;2022-07-23T11:18:53;7.00;;;2.03;;
35026;SDS011;60696;51.426;6.934;2022-07-23T11:31:52;4.40;;;2.60;;
35026;SDS011;60696;51.426;6.934;2022-07-23T11:36:59;3.30;;;2.08;;
35026;SDS011;60696;51.426;6.934;2022-07-23T11:39:26;6.35;;;2.33;;
35026;SDS011;60696;51.426;6.934;2022-07-23T11:41:53;3.08;;;1.63;;
35026;SDS011;60696;51.426;6.934;2022-07-23T11:44:25;2.60;;;1.60;;
35026;SDS011;60696;51.426;6.934;2022-07-23T11:46:58;3.80;;;2.20;;
35026;SDS011;60696;51.426;6.934;2022-07-23T11:49:25;3.22;;;2.20;;
35026;SDS011;60696;51.426;6.934;2022-07-23T11:54:34;2.83;;;1.70;;
35026;SDS011;60696;51.426;6.934;2022-07-23T11:57:02;6.43;;;2.55;;
35026;SDS011;60696;51.426;6.934;2022-07-23T11:59:32;5.88;;;2.17;;
35026;SDS011;60696;51.426;6.934;2022-07-23T12:02:02;3.72;;;1.75;;
35026;SDS011;60696;51.426;6.934;2022-07-23T12:09:50;4.03;;;1.60;;
35026;SDS011;60696;51.426;6.934;2022-07-23T12:12:16;2.88;;;1.77;;
35026;SDS011;60696;51.426;6.934;2022-07-23T12:17:18;2.53;;;1.75;;
35026;SDS011;60696;51.426;6.934;2022-07-23T12:19:45;3.55;;;2.00;;
35026;SDS011;60696;51.426;6.934;2022-07-23T12:22:11;3.25;;;1.70;;
35026;SDS011;60696;51.426;6.934;2022-07-23T12:27:29;5.90;;;2.60;;
35026;SDS011;60696;51.426;6.934;2022-07-23T12:29:54;2.85;;;1.55;;
35026;SDS011;60696;51.426;6.934;2022-07-23T12:35:01;5.68;;;2.40;;
35026;SDS011;60696;51.426;6.934;2022-07-23T12:37:36;5.28;;;1.92;;
35026;SDS011;60696;51.426;6.934;2022-07-23T12:42:44;3.60;;;2.55;;
35026;SDS011;60696;51.426;6.934;2022-07-23T12:45:11;6.05;;;1.83;;
35026;SDS011;60696;51.426;6.934;2022-07-23T12:50:52;3.92;;;2.53;;
35026;SDS011;60696;51.426;6.934;2022-07-23T12:56:11;3.05;;;1.70;;
35026;SDS011;60696;51.426;6.934;2022-07-23T13:01:23;3.58;;;1.60;;
35026;SDS011;60696;51.426;6.934;2022-07-23T13:09:08;6.28;;;1.80;;
35026;SDS011;60696;51.426;6.934;2022-07-23T13:11:37;2.67;;;1.90;;
35026;SDS011;60696;51.426;6.934;2022-07-23T13:14:03;5.07;;;1.90;;
35026;SDS011;60696;51.426;6.934;2022-07-23T13:16:30;4.05;;;1.92;;
35026;SDS011;60696;51.426;6.934;2022-07-23T13:18:56;3.35;;;2.30;;
35026;SDS011;60696;51.426;6.934;2022-07-23T13:21:23;5.28;;;2.40;;
35026;SDS011;60696;51.426;6.934;2022-07-23T13:23:49;4.75;;;2.40;;
35026;SDS011;60696;51.426;6.934;2022-07-23T13:26:15;7.55;;;2.17;;
35026;SDS011;60696;51.426;6.934;2022-07-23T13:28:40;7.43;;;2.25;;
35026;SDS011;60696;51.426;6.934;2022-07-23T13:31:06;3.45;;;2.72;;
35026;SDS011;60696;51.426;6.934;2022-07-23T13:33:32;5.85;;;2.10;;
35026;SDS011;60696;51.426;6.934;2022-07-23T13:35:58;5.03;;;2.10;;
35026;SDS011;60696;51.426;6.934;2022-07-23T13:38:24;5.00;;;2.13;;
35026;SDS011;60696;51.426;6.934;2022-07-23T13:40:50;6.43;;;2.10;;
35026;SDS011;60696;51.426;6.934;2022-07-23T13:43:19;5.03;;;1.80;;
35026;SDS011;60696;51.426;6.934;2022-07-23T13:45:46;3.17;;;1.95;;
35026;SDS011;60696;51.426;6.934;2022-07-23T13:48:12;5.03;;;2.38;;
35026;SDS011;60696;51.426;6.934;2022-07-23T13:50:39;4.45;;;2.30;;
35026;SDS011;60696;51.426;6.934;2022-07-23T13:53:07;4.68;;;2.15;;
35026;SDS011;60696;51.426;6.934;2022-07-23T13:55:34;4.38;;;2.00;;
35026;SDS011;60696;51.426;6.934;2022-07-23T13:58:01;3.45;;;1.88;;
35026;SDS011;60696;51.426;6.934;2022-07-23T14:00:27;3.10;;;2.20;;
35026;SDS011;60696;51.426;6.934;2022-07-23T14:02:55;3.47;;;1.77;;
35026;SDS011;60696;51.426;6.934;2022-07-23T14:05:21;5.18;;;2.00;;
35026;SDS011;60696;51.426;6.934;2022-07-23T14:07:47;3.55;;;2.10;;
35026;SDS011;60696;51.426;6.934;2022-07-23T14:10:14;5.10;;;2.05;;
35026;SDS011;60696;51.426;6.934;2022-07-23T14:12:41;5.13;;;2.95;;
35026;SDS011;60696;51.426;6.934;2022-07-23T14:15:06;3.88;;;2.22;;
35026;SDS011;60696;51.426;6.934;2022-07-23T14:17:33;4.82;;;1.90;;
35026;SDS011;60696;51.426;6.934;2022-07-23T14:20:04;5.43;;;2.10;;
35026;SDS011;60696;51.426;6.934;2022-07-23T14:22:30;4.53;;;2.08;;
35026;SDS011;60696;51.426;6.934;2022-07-23T14:24:57;4.05;;;2.03;;
35026;SDS011;60696;51.426;6.934;2022-07-23T14:27:23;7.00;;;1.75;;
35026;SDS011;60696;51.426;6.934;2022-07-23T14:29:50;2.88;;;1.98;;
35026;SDS011;60696;51.426;6.934;2022-07-23T14:32:16;3.67;;;1.98;;
35026;SDS011;60696;51.426;6.934;2022-07-23T14:34:41;5.25;;;2.40;;
35026;SDS011;60696;51.426;6.934;2022-07-23T14:37:08;2.58;;;1.90;;
35026;SDS011;60696;51.426;6.934;2022-07-23T14:39:36;3.95;;;1.70;;
35026;SDS011;60696;51.426;6.934;2022-07-23T14:42:02;4.35;;;2.08;;
35026;SDS011;60696;51.426;6.934;2022-07-23T14:44:29;4.72;;;1.90;;
35026;SDS011;60696;51.426;6.934;2022-07-23T14:46:54;7.63;;;2.17;;
35026;SDS011;60696;51.426;6.934;2022-07-23T14:49:21;3.63;;;2.33;;
35026;SDS011;60696;51.426;6.934;2022-07-23T14:51:46;3.05;;;1.92;;
35026;SDS011;60696;51.426;6.934;2022-07-23T14:54:13;6.55;;;2.22;;
35026;SDS011;60696;51.426;6.934;2022-07-23T14:56:40;5.13;;;1.95;;
35026;SDS011;60696;51.426;6.934;2022-07-23T14:59:06;3.92;;;2.20;;
35026;SDS011;60696;51.426;6.934;2022-07-23T15:01:32;4.57;;;2.30;;
35026;SDS011;60696;51.426;6.934;2022-07-23T15:03:58;5.10;;;2.00;;
35026;SDS011;60696;51.426;6.934;2022-07-23T15:06:24;4.15;;;1.85;;
35026;SDS011;60696;51.426;6.934;2022-07-23T15:08:50;5.03;;;2.30;;
35026;SDS011;60696;51.426;6.934;2022-07-23T15:11:16;3.40;;;2.10;;
35026;SDS011;60696;51.426;6.934;2022-07-23T15:13:41;4.82;;;2.20;;
35026;SDS011;60696;51.426;6.934;2022-07-23T15:16:07;6.40;;;2.53;;
35026;SDS011;60696;51.426;6.934;2022-07-23T15:18:33;6.45;;;2.15;;
35026;SDS011;60696;51.426;6.934;2022-07-23T15:20:59;4.72;;;2.35;;
35026;SDS011;60696;51.426;6.934;2022-07-23T15:23:26;3.85;;;2.38;;
35026;SDS011;60696;51.426;6.934;2022-07-23T15:25:51;9.38;;;2.53;;
35026;SDS011;60696;51.426;6.934;2022-07-23T15:28:19;7.22;;;2.50;;
35026;SDS011;60696;51.426;6.934;2022-07-23T15:30:45;4.13;;;2.22;;
35026;SDS011;60696;51.426;6.934;2022-07-23T15:33:10;4.78;;;2.53;;
35026;SDS011;60696;51.426;6.934;2022-07-23T15:35:36;6.05;;;2.50;;
35026;SDS011;60696;51.426;6.934;2022-07-23T15:38:02;6.53;;;4.60;;
35026;SDS011;60696;51.426;6.934;2022-07-23T15:40:28;4.25;;;2.80;;
35026;SDS011;60696;51.426;6.934;2022-07-23T15:42:54;7.40;;;2.70;;
35026;SDS011;60696;51.426;6.934;2022-07-23T15:45:19;5.20;;;3.50;;
35026;SDS011;60696;51.426;6.934;2022-07-23T15:47:46;6.10;;;4.00;;
35026;SDS011;60696;51.426;6.934;2022-07-23T15:50:13;4.88;;;3.60;;
35026;SDS011;60696;51.426;6.934;2022-07-23T15:52:39;5.70;;;2.67;;
35026;SDS011;60696;51.426;6.934;2022-07-23T15:55:05;5.40;;;2.97;;
35026;SDS011;60696;51.426;6.934;2022-07-23T15:57:31;3.80;;;2.78;;
35026;SDS011;60696;51.426;6.934;2022-07-23T15:59:57;5.78;;;2.95;;